Time;durP1;ratioP1;P1;durP2;ratioP2;P2;SDS_P1;SDS_P2;PMS_P1;PMS_P2;Temp;Humidity;BMP_temperature;BMP_pressure;BME280_temperature;BME280_humidity;BME280_pressure;Samples;Min_cycle;Max_cycle;Signal;HPM_P1;HPM_P2
2023/06/24 00:02:13;;;;;;;21.25;12.57;;;;;;;;;;5057272;28;20114;-72
2023/06/24 00:04:39;;;;;;;14.73;13.07;;;;;;;;;;5056214;28;20079;-71
2023/06/24 00:07:06;;;;;;;16.65;12.82;;;;;;;;;;5057198;28;20485;-72
2023/06/24 00:09:32;;;;;;;16.15;12.65;;;;;;;;;;5056135;28;20767;-72
2023/06/24 00:11:58;;;;;;;15.18;12.57;;;;;;;;;;5057141;28;20080;-71
2023/06/24 00:14:26;;;;;;;13.52;11.82;;;;;;;;;;5058208;28;20071;-71
2023/06/24 00:16:53;;;;;;;17.33;13.00;;;;;;;;;;5055454;28;20076;-71
2023/06/24 00:19:20;;;;;;;16.27;13.40;;;;;;;;;;5058169;28;20047;-72
2023/06/24 00:21:46;;;;;;;18.38;13.18;;;;;;;;;;5056727;28;20580;-71
2023/06/24 00:24:12;;;;;;;17.88;13.63;;;;;;;;;;5056786;28;20048;-71
2023/06/24 00:26:38;;;;;;;17.80;14.23;;;;;;;;;;5057678;28;20377;-71
2023/06/24 00:29:04;;;;;;;20.38;13.82;;;;;;;;;;5058432;28;20064;-70
2023/06/24 00:31:30;;;;;;;18.10;14.75;;;;;;;;;;5061567;28;20063;-70
2023/06/24 00:33:57;;;;;;;17.02;14.23;;;;;;;;;;5061752;28;20052;-72
2023/06/24 00:36:23;;;;;;;16.08;14.00;;;;;;;;;;5058245;28;20075;-71
2023/06/24 00:38:49;;;;;;;18.70;14.25;;;;;;;;;;5059535;28;20450;-71
2023/06/24 00:41:17;;;;;;;19.35;14.27;;;;;;;;;;5056860;28;20045;-71
2023/06/24 00:43:43;;;;;;;18.63;14.75;;;;;;;;;;5057727;28;20045;-71
2023/06/24 00:46:09;;;;;;;18.02;15.07;;;;;;;;;;5055935;28;21652;-71
2023/06/24 00:48:35;;;;;;;19.55;15.90;;;;;;;;;;5056436;28;20090;-71
2023/06/24 00:51:02;;;;;;;22.23;15.05;;;;;;;;;;5055971;28;20045;-72
2023/06/24 00:53:28;;;;;;;20.60;15.35;;;;;;;;;;5056198;28;20057;-71
2023/06/24 00:55:55;;;;;;;16.88;14.60;;;;;;;;;;5056085;28;20166;-71
2023/06/24 00:58:21;;;;;;;16.33;14.65;;;;;;;;;;5056549;28;20503;-71
2023/06/24 01:00:56;;;;;;;17.05;14.32;;;;;;;;;;5056596;28;20131;-71
2023/06/24 01:03:22;;;;;;;24.38;14.85;;;;;;;;;;5057583;28;20128;-71
2023/06/24 01:05:49;;;;;;;18.00;14.20;;;;;;;;;;5058493;28;20140;-71
2023/06/24 01:08:15;;;;;;;15.15;13.02;;;;;;;;;;5057453;28;20501;-71
2023/06/24 01:10:42;;;;;;;15.18;13.45;;;;;;;;;;5056931;28;20040;-71
2023/06/24 01:13:08;;;;;;;17.08;13.70;;;;;;;;;;5058523;28;20036;-71
2023/06/24 01:15:34;;;;;;;20.75;14.02;;;;;;;;;;5048059;28;20048;-72
2023/06/24 01:18:10;;;;;;;19.33;15.02;;;;;;;;;;5057432;28;20121;-71
2023/06/24 01:20:37;;;;;;;15.07;12.93;;;;;;;;;;5056430;28;20661;-71
2023/06/24 01:23:03;;;;;;;23.02;13.35;;;;;;;;;;5057209;28;20048;-72
2023/06/24 01:25:32;;;;;;;16.52;13.77;;;;;;;;;;5054328;28;20416;-71
2023/06/24 01:28:08;;;;;;;15.18;13.52;;;;;;;;;;5056619;28;20052;-72
2023/06/24 01:30:52;;;;;;;16.27;12.73;;;;;;;;;;5056388;28;20052;-71
2023/06/24 01:33:28;;;;;;;16.20;13.25;;;;;;;;;;5056506;28;20040;-71
2023/06/24 01:35:55;;;;;;;21.20;14.93;;;;;;;;;;5055042;28;20405;-71
2023/06/24 01:38:38;;;;;;;21.48;15.35;;;;;;;;;;5057362;28;20029;-72
2023/06/24 01:41:06;;;;;;;21.00;15.20;;;;;;;;;;5055020;28;20123;-72
2023/06/24 01:43:34;;;;;;;18.13;14.75;;;;;;;;;;5054906;28;20083;-71
2023/06/24 01:46:00;;;;;;;18.80;15.18;;;;;;;;;;5047783;28;20105;-71
2023/06/24 01:48:29;;;;;;;23.35;16.20;;;;;;;;;;5056309;28;20151;-71
2023/06/24 01:51:07;;;;;;;16.65;14.32;;;;;;;;;;5056900;28;20053;-72
2023/06/24 01:53:35;;;;;;;22.10;14.93;;;;;;;;;;5057599;28;20403;-71
2023/06/24 01:56:02;;;;;;;20.85;14.63;;;;;;;;;;5058098;28;20157;-71
2023/06/24 01:58:29;;;;;;;16.77;14.35;;;;;;;;;;5058133;28;21014;-71
2023/06/24 02:00:57;;;;;;;19.42;14.50;;;;;;;;;;5051755;28;20037;-72
2023/06/24 02:03:24;;;;;;;17.88;14.02;;;;;;;;;;5056456;28;20585;-72
2023/06/24 02:05:51;;;;;;;16.88;13.38;;;;;;;;;;5056521;28;20365;-72
2023/06/24 02:08:18;;;;;;;16.90;12.60;;;;;;;;;;5054952;28;20056;-71
2023/06/24 02:10:45;;;;;;;14.18;10.48;;;;;;;;;;5055032;28;20055;-72
2023/06/24 02:13:12;;;;;;;11.32;9.32;;;;;;;;;;5052768;28;20037;-72
2023/06/24 02:15:39;;;;;;;11.43;9.27;;;;;;;;;;5052677;28;20043;-71
2023/06/24 02:18:07;;;;;;;9.18;8.25;;;;;;;;;;5060274;28;20049;-71
2023/06/24 02:20:33;;;;;;;9.63;8.63;;;;;;;;;;5062410;28;20230;-71
2023/06/24 02:22:59;;;;;;;12.32;8.93;;;;;;;;;;5057264;28;20041;-71
2023/06/24 02:25:26;;;;;;;11.35;10.18;;;;;;;;;;5056326;28;20059;-71
2023/06/24 02:27:53;;;;;;;14.07;10.50;;;;;;;;;;5056483;28;20029;-71
2023/06/24 02:30:20;;;;;;;11.70;10.50;;;;;;;;;;5056746;28;20042;-71
2023/06/24 02:32:46;;;;;;;14.95;11.35;;;;;;;;;;5054607;28;20078;-71
2023/06/24 02:35:12;;;;;;;14.07;11.05;;;;;;;;;;5054402;28;20045;-72
2023/06/24 02:37:38;;;;;;;15.48;13.70;;;;;;;;;;5055739;28;20056;-71
2023/06/24 02:40:05;;;;;;;14.77;12.63;;;;;;;;;;5055832;28;20036;-71
2023/06/24 02:42:31;;;;;;;17.95;13.10;;;;;;;;;;5054692;28;20127;-71
2023/06/24 02:44:58;;;;;;;17.75;14.90;;;;;;;;;;5055067;28;20040;-71
2023/06/24 02:47:24;;;;;;;20.77;15.60;;;;;;;;;;5054498;28;20048;-72
2023/06/24 02:49:51;;;;;;;16.48;14.50;;;;;;;;;;5054570;28;20711;-71
2023/06/24 02:52:17;;;;;;;19.92;15.23;;;;;;;;;;5055480;28;20052;-71
2023/06/24 02:54:44;;;;;;;21.10;14.75;;;;;;;;;;5055763;28;20052;-71
2023/06/24 02:57:10;;;;;;;20.15;14.40;;;;;;;;;;5056703;28;20048;-71
2023/06/24 02:59:37;;;;;;;19.33;13.27;;;;;;;;;;5054139;28;20051;-71
2023/06/24 03:02:05;;;;;;;17.98;13.65;;;;;;;;;;5055269;28;20048;-73
2023/06/24 03:04:31;;;;;;;17.70;13.30;;;;;;;;;;5054862;28;20041;-72
2023/06/24 03:06:59;;;;;;;17.13;12.60;;;;;;;;;;5055570;28;20583;-72
2023/06/24 03:09:25;;;;;;;16.70;13.23;;;;;;;;;;5055774;28;20388;-72
2023/06/24 03:11:51;;;;;;;17.27;14.23;;;;;;;;;;5054537;28;20045;-72
2023/06/24 03:14:17;;;;;;;21.65;14.10;;;;;;;;;;5056732;28;20252;-72
2023/06/24 03:16:43;;;;;;;18.50;14.65;;;;;;;;;;5056057;28;20052;-72
2023/06/24 03:19:09;;;;;;;16.20;13.75;;;;;;;;;;5056261;28;20032;-71
2023/06/24 03:21:35;;;;;;;17.63;14.45;;;;;;;;;;5059149;28;20400;-73
2023/06/24 03:24:02;;;;;;;21.95;14.70;;;;;;;;;;5057429;28;20056;-73
2023/06/24 03:26:37;;;;;;;19.95;15.20;;;;;;;;;;5059568;28;20724;-73
2023/06/24 03:29:03;;;;;;;16.60;14.23;;;;;;;;;;5060472;28;20040;-72
2023/06/24 03:31:30;;;;;;;25.13;15.52;;;;;;;;;;5040684;28;20055;-72
2023/06/24 03:33:56;;;;;;;20.63;14.82;;;;;;;;;;5060549;28;20059;-72
2023/06/24 03:36:23;;;;;;;19.35;14.98;;;;;;;;;;5060778;28;20550;-72
2023/06/24 03:38:49;;;;;;;26.10;15.65;;;;;;;;;;5059199;28;20132;-72
2023/06/24 03:41:15;;;;;;;25.58;15.80;;;;;;;;;;5059522;28;20060;-72
2023/06/24 03:43:42;;;;;;;18.20;15.10;;;;;;;;;;5058899;28;20157;-72
2023/06/24 03:46:08;;;;;;;21.67;16.15;;;;;;;;;;5056957;28;20040;-72
2023/06/24 03:48:35;;;;;;;24.38;16.50;;;;;;;;;;5043789;28;20101;-72
2023/06/24 03:51:01;;;;;;;25.20;18.42;;;;;;;;;;5058608;28;20051;-72
2023/06/24 03:53:27;;;;;;;23.25;18.13;;;;;;;;;;5056425;28;20495;-72
2023/06/24 03:55:53;;;;;;;21.02;16.92;;;;;;;;;;5058215;28;20046;-72
2023/06/24 03:58:20;;;;;;;28.42;18.45;;;;;;;;;;5056399;28;20041;-73
2023/06/24 04:00:49;;;;;;;19.80;16.15;;;;;;;;;;5058968;28;20044;-72
2023/06/24 04:03:16;;;;;;;24.08;18.27;;;;;;;;;;5057986;28;20119;-72
2023/06/24 04:05:42;;;;;;;23.55;16.65;;;;;;;;;;5059502;28;20119;-72
2023/06/24 04:08:08;;;;;;;24.92;17.23;;;;;;;;;;5056470;28;20048;-72
2023/06/24 04:10:34;;;;;;;21.50;17.70;;;;;;;;;;5058489;28;20053;-72
2023/06/24 04:13:00;;;;;;;25.65;17.90;;;;;;;;;;5055943;28;20048;-72
2023/06/24 04:15:26;;;;;;;23.92;17.60;;;;;;;;;;5057564;28;20044;-72
2023/06/24 04:17:52;;;;;;;22.50;16.73;;;;;;;;;;5058070;28;20075;-72
2023/06/24 04:20:18;;;;;;;22.27;16.20;;;;;;;;;;5056500;28;20205;-72
2023/06/24 04:22:44;;;;;;;22.92;16.92;;;;;;;;;;5057077;28;20274;-72
2023/06/24 04:25:11;;;;;;;25.80;17.83;;;;;;;;;;5058880;28;20049;-72
2023/06/24 04:27:37;;;;;;;27.65;17.05;;;;;;;;;;5060884;28;20036;-72
2023/06/24 04:30:04;;;;;;;27.58;17.15;;;;;;;;;;5059420;28;20040;-71
2023/06/24 04:32:30;;;;;;;26.45;17.65;;;;;;;;;;5058372;28;20044;-72
2023/06/24 04:34:56;;;;;;;23.95;18.88;;;;;;;;;;5058533;28;21044;-73
2023/06/24 04:37:22;;;;;;;25.17;18.70;;;;;;;;;;5057228;28;20152;-72
2023/06/24 04:39:48;;;;;;;25.77;19.15;;;;;;;;;;5055885;28;20041;-73
2023/06/24 04:42:15;;;;;;;26.10;18.58;;;;;;;;;;5053187;28;20380;-72
2023/06/24 04:44:41;;;;;;;25.33;18.45;;;;;;;;;;5056138;28;20080;-72
2023/06/24 04:47:07;;;;;;;24.83;19.65;;;;;;;;;;5056423;28;20485;-72
2023/06/24 04:49:33;;;;;;;27.73;18.05;;;;;;;;;;5054890;28;21703;-73
2023/06/24 04:52:02;;;;;;;25.30;18.80;;;;;;;;;;5058223;28;20052;-73
2023/06/24 04:54:30;;;;;;;25.35;19.15;;;;;;;;;;5054144;28;20130;-73
2023/06/24 04:56:57;;;;;;;29.80;17.58;;;;;;;;;;5057068;28;20052;-72
2023/06/24 04:59:23;;;;;;;24.77;17.70;;;;;;;;;;5056890;28;20040;-72
2023/06/24 05:01:49;;;;;;;24.42;17.58;;;;;;;;;;5056267;28;20748;-72
2023/06/24 05:04:15;;;;;;;23.05;17.98;;;;;;;;;;5056251;28;20088;-72
2023/06/24 05:06:41;;;;;;;22.27;17.27;;;;;;;;;;5055622;28;20735;-72
2023/06/24 05:09:08;;;;;;;25.52;17.50;;;;;;;;;;5055446;28;20036;-72
2023/06/24 05:11:34;;;;;;;25.90;16.80;;;;;;;;;;5057217;28;20122;-72
2023/06/24 05:14:00;;;;;;;22.73;17.67;;;;;;;;;;5056525;28;20445;-72
2023/06/24 05:16:26;;;;;;;21.77;16.20;;;;;;;;;;5055442;28;20064;-72
2023/06/24 05:18:52;;;;;;;20.50;16.15;;;;;;;;;;5054776;28;20163;-72
2023/06/24 05:21:18;;;;;;;23.20;16.38;;;;;;;;;;5055016;28;20090;-73
2023/06/24 05:23:44;;;;;;;23.25;16.48;;;;;;;;;;5054330;28;20059;-72
2023/06/24 05:26:11;;;;;;;21.85;16.33;;;;;;;;;;5056205;28;20040;-72
2023/06/24 05:28:37;;;;;;;23.25;16.02;;;;;;;;;;5055894;28;20129;-72
2023/06/24 05:31:03;;;;;;;20.58;15.93;;;;;;;;;;5055157;28;20059;-73
2023/06/24 05:33:29;;;;;;;23.95;16.65;;;;;;;;;;5056384;28;20251;-72
2023/06/24 05:35:55;;;;;;;25.40;16.08;;;;;;;;;;5055023;28;20449;-72
2023/06/24 05:38:21;;;;;;;20.80;16.13;;;;;;;;;;5055785;28;20076;-72
2023/06/24 05:40:47;;;;;;;20.33;14.13;;;;;;;;;;5055901;28;20103;-72
2023/06/24 05:43:13;;;;;;;19.05;13.57;;;;;;;;;;5054556;28;20056;-72
2023/06/24 05:45:39;;;;;;;20.60;13.80;;;;;;;;;;5053555;28;20048;-72
2023/06/24 05:48:06;;;;;;;21.55;13.82;;;;;;;;;;5047765;28;20052;-72
2023/06/24 05:50:32;;;;;;;19.17;13.18;;;;;;;;;;5053310;28;20056;-73
2023/06/24 05:52:58;;;;;;;22.48;13.10;;;;;;;;;;5052466;28;20477;-72
2023/06/24 05:55:24;;;;;;;18.83;12.90;;;;;;;;;;5056018;28;20040;-72
2023/06/24 05:57:51;;;;;;;18.13;12.60;;;;;;;;;;5055257;28;20127;-72
2023/06/24 06:00:18;;;;;;;13.23;11.00;;;;;;;;;;5056016;28;20382;-73
2023/06/24 06:02:44;;;;;;;15.95;12.15;;;;;;;;;;5055735;28;21029;-72
2023/06/24 06:05:10;;;;;;;17.83;11.95;;;;;;;;;;5055407;28;20052;-72
2023/06/24 06:07:39;;;;;;;12.88;10.32;;;;;;;;;;5055858;28;20105;-73
2023/06/24 06:10:06;;;;;;;16.75;10.55;;;;;;;;;;5055949;28;20472;-72
2023/06/24 06:12:32;;;;;;;15.60;10.55;;;;;;;;;;5056535;28;20106;-72
2023/06/24 06:14:58;;;;;;;13.88;8.82;;;;;;;;;;5056801;28;20032;-72
2023/06/24 06:17:24;;;;;;;17.33;9.25;;;;;;;;;;5056122;28;20483;-72
2023/06/24 06:19:50;;;;;;;13.02;9.07;;;;;;;;;;5054634;28;20469;-72
2023/06/24 06:22:17;;;;;;;12.25;8.55;;;;;;;;;;5057207;28;20591;-72
2023/06/24 06:24:44;;;;;;;9.02;7.32;;;;;;;;;;5054010;28;20572;-72
2023/06/24 06:27:11;;;;;;;14.88;8.80;;;;;;;;;;5054016;28;20044;-72
2023/06/24 06:29:37;;;;;;;10.20;8.07;;;;;;;;;;5055959;28;20040;-72
2023/06/24 06:32:04;;;;;;;8.95;8.00;;;;;;;;;;5055784;28;20044;-72
2023/06/24 06:34:30;;;;;;;9.13;7.95;;;;;;;;;;5055175;28;20745;-73
2023/06/24 06:36:56;;;;;;;10.65;7.72;;;;;;;;;;5055656;28;20182;-72
2023/06/24 06:39:22;;;;;;;10.38;8.52;;;;;;;;;;5054661;28;20078;-72
2023/06/24 06:41:48;;;;;;;13.98;8.32;;;;;;;;;;5053350;28;20071;-72
2023/06/24 06:44:14;;;;;;;8.73;7.57;;;;;;;;;;5054457;28;20040;-72
2023/06/24 06:46:40;;;;;;;9.68;7.50;;;;;;;;;;5053648;28;20116;-72
2023/06/24 06:49:06;;;;;;;10.38;7.28;;;;;;;;;;5055843;28;20040;-73
2023/06/24 06:51:33;;;;;;;9.50;7.75;;;;;;;;;;5055106;28;20044;-73
2023/06/24 06:53:59;;;;;;;13.50;7.20;;;;;;;;;;5053786;28;20071;-72
2023/06/24 06:56:25;;;;;;;13.07;7.32;;;;;;;;;;5055524;28;20404;-72
2023/06/24 06:58:52;;;;;;;14.07;7.80;;;;;;;;;;5054052;28;20040;-72
2023/06/24 07:01:18;;;;;;;10.93;8.23;;;;;;;;;;5057124;28;20491;-72
2023/06/24 07:03:45;;;;;;;10.60;7.55;;;;;;;;;;5058501;28;20037;-72
2023/06/24 07:06:11;;;;;;;10.25;8.07;;;;;;;;;;5059886;28;20526;-71
2023/06/24 07:08:37;;;;;;;8.93;7.82;;;;;;;;;;5059025;28;20044;-72
2023/06/24 07:11:03;;;;;;;9.68;8.07;;;;;;;;;;5056504;28;20056;-73
2023/06/24 07:13:30;;;;;;;8.90;7.97;;;;;;;;;;5059356;28;20192;-72
2023/06/24 07:15:56;;;;;;;10.38;7.57;;;;;;;;;;5057846;28;20484;-72
2023/06/24 07:18:22;;;;;;;9.55;8.43;;;;;;;;;;5060151;28;20491;-72
2023/06/24 07:20:48;;;;;;;9.73;7.80;;;;;;;;;;5056511;28;20135;-72
2023/06/24 07:23:14;;;;;;;8.82;7.93;;;;;;;;;;5056795;28;20048;-72
2023/06/24 07:25:41;;;;;;;9.98;8.82;;;;;;;;;;5057379;28;20435;-72
2023/06/24 07:28:07;;;;;;;12.60;8.80;;;;;;;;;;5058525;28;20043;-72
2023/06/24 07:30:33;;;;;;;13.18;8.88;;;;;;;;;;5058422;28;20040;-72
2023/06/24 07:33:05;;;;;;;14.50;8.63;;;;;;;;;;5057895;28;20043;-72
2023/06/24 07:35:31;;;;;;;12.77;9.35;;;;;;;;;;5058597;28;20036;-72
2023/06/24 07:37:57;;;;;;;11.48;8.63;;;;;;;;;;5058389;28;20048;-72
2023/06/24 07:40:23;;;;;;;14.57;8.60;;;;;;;;;;5057397;28;20371;-72
2023/06/24 07:42:49;;;;;;;13.55;9.18;;;;;;;;;;5058143;28;20044;-72
2023/06/24 07:45:15;;;;;;;11.57;8.90;;;;;;;;;;5055117;28;20368;-72
2023/06/24 07:47:41;;;;;;;11.60;9.38;;;;;;;;;;5057853;28;20144;-72
2023/06/24 07:50:10;;;;;;;13.27;8.70;;;;;;;;;;5056314;28;20106;-72
2023/06/24 07:52:36;;;;;;;15.60;8.98;;;;;;;;;;5059469;28;20047;-72
2023/06/24 07:55:03;;;;;;;10.95;8.10;;;;;;;;;;5058274;28;20385;-72
2023/06/24 07:57:29;;;;;;;10.02;8.18;;;;;;;;;;5058128;28;20049;-72
2023/06/24 07:59:55;;;;;;;11.98;8.60;;;;;;;;;;5059554;28;20040;-72
2023/06/24 08:02:21;;;;;;;9.63;7.90;;;;;;;;;;5059981;28;20214;-72
2023/06/24 08:04:47;;;;;;;11.40;8.00;;;;;;;;;;5059839;28;20044;-72
2023/06/24 08:07:15;;;;;;;10.93;8.35;;;;;;;;;;5058896;28;20045;-72
2023/06/24 08:09:41;;;;;;;10.95;9.30;;;;;;;;;;5059549;28;20040;-72
2023/06/24 08:12:07;;;;;;;11.82;8.40;;;;;;;;;;5058683;28;20181;-73
2023/06/24 08:14:33;;;;;;;10.68;7.85;;;;;;;;;;5060609;28;20045;-72
2023/06/24 08:16:59;;;;;;;10.80;8.75;;;;;;;;;;5059685;28;20058;-71
2023/06/24 08:19:25;;;;;;;13.57;8.45;;;;;;;;;;5073847;28;20062;-72
2023/06/24 08:21:51;;;;;;;11.90;8.95;;;;;;;;;;5076414;28;20044;-72
2023/06/24 08:24:17;;;;;;;11.05;9.13;;;;;;;;;;5078548;28;20036;-72
2023/06/24 08:26:43;;;;;;;12.18;8.93;;;;;;;;;;5078222;28;20680;-72
2023/06/24 08:29:09;;;;;;;13.98;8.35;;;;;;;;;;5075502;28;20040;-73
2023/06/24 08:31:36;;;;;;;13.93;8.80;;;;;;;;;;5059897;28;20443;-72
2023/06/24 08:34:02;;;;;;;11.93;9.65;;;;;;;;;;5058327;28;20037;-72
2023/06/24 08:36:32;;;;;;;11.25;9.35;;;;;;;;;;5058821;28;20519;-72
2023/06/24 08:38:58;;;;;;;11.70;9.25;;;;;;;;;;5057335;28;20041;-72
2023/06/24 08:41:27;;;;;;;13.15;9.13;;;;;;;;;;5058314;28;20535;-72
2023/06/24 08:43:56;;;;;;;12.63;9.48;;;;;;;;;;5056877;28;20484;-72
2023/06/24 08:46:24;;;;;;;14.07;9.27;;;;;;;;;;5058557;28;20656;-72
2023/06/24 08:48:53;;;;;;;14.77;8.18;;;;;;;;;;5057847;28;20076;-72
2023/06/24 08:51:21;;;;;;;16.33;9.15;;;;;;;;;;5057495;28;20255;-72
2023/06/24 08:53:49;;;;;;;12.50;9.43;;;;;;;;;;5056283;28;20045;-73
2023/06/24 08:56:15;;;;;;;10.57;8.27;;;;;;;;;;5057787;28;20097;-72
2023/06/24 08:58:41;;;;;;;9.13;8.23;;;;;;;;;;5057697;28;20425;-72
2023/06/24 09:01:07;;;;;;;11.07;8.25;;;;;;;;;;5057826;28;20404;-73
2023/06/24 09:03:34;;;;;;;10.82;9.00;;;;;;;;;;5060204;28;20048;-72
2023/06/24 09:06:00;;;;;;;11.00;8.93;;;;;;;;;;5058380;28;20029;-72
2023/06/24 09:08:26;;;;;;;13.05;8.68;;;;;;;;;;5059300;28;20622;-71
2023/06/24 09:10:55;;;;;;;14.43;9.48;;;;;;;;;;5052051;28;20036;-72
2023/06/24 09:13:23;;;;;;;11.32;9.25;;;;;;;;;;5058154;28;20075;-72
2023/06/24 09:15:49;;;;;;;13.85;9.52;;;;;;;;;;5057058;28;20040;-72
2023/06/24 09:18:17;;;;;;;14.82;9.77;;;;;;;;;;5058220;28;20476;-72
2023/06/24 09:20:49;;;;;;;12.40;9.48;;;;;;;;;;5039657;28;20063;-72
2023/06/24 09:23:17;;;;;;;15.60;8.98;;;;;;;;;;5057648;28;20136;-72
2023/06/24 09:25:43;;;;;;;10.98;8.35;;;;;;;;;;5056175;28;20131;-72
2023/06/24 09:28:09;;;;;;;9.98;8.55;;;;;;;;;;5056290;28;20044;-72
2023/06/24 09:30:35;;;;;;;9.85;8.30;;;;;;;;;;5056949;28;20043;-72
2023/06/24 09:33:01;;;;;;;10.63;8.15;;;;;;;;;;5058352;28;20440;-72
2023/06/24 09:35:27;;;;;;;11.63;8.23;;;;;;;;;;5058135;28;20189;-72
2023/06/24 09:37:54;;;;;;;10.35;8.63;;;;;;;;;;5057254;28;20040;-72
2023/06/24 09:40:21;;;;;;;11.07;7.68;;;;;;;;;;5058283;28;20036;-72
2023/06/24 09:42:54;;;;;;;10.32;7.28;;;;;;;;;;5057290;28;20048;-72
2023/06/24 09:45:21;;;;;;;11.32;8.23;;;;;;;;;;5057871;28;20044;-73
2023/06/24 09:47:47;;;;;;;10.27;7.28;;;;;;;;;;5059153;28;20040;-72
2023/06/24 09:50:13;;;;;;;9.07;7.20;;;;;;;;;;5054966;28;20090;-72
2023/06/24 09:52:40;;;;;;;11.98;6.20;;;;;;;;;;5055858;28;20036;-72
2023/06/24 09:55:07;;;;;;;8.88;6.05;;;;;;;;;;5054564;28;20052;-72
2023/06/24 09:57:35;;;;;;;8.35;6.13;;;;;;;;;;5058167;28;20047;-73
2023/06/24 10:00:03;;;;;;;9.93;5.82;;;;;;;;;;5058217;28;20044;-72
2023/06/24 10:02:30;;;;;;;9.55;5.78;;;;;;;;;;5037413;28;20097;-72
2023/06/24 10:04:56;;;;;;;8.40;6.20;;;;;;;;;;5056138;28;20377;-72
2023/06/24 10:07:22;;;;;;;6.35;5.07;;;;;;;;;;5056856;28;20503;-72
2023/06/24 10:09:49;;;;;;;10.68;7.00;;;;;;;;;;5058674;28;20084;-72
2023/06/24 10:12:15;;;;;;;11.82;5.95;;;;;;;;;;5056863;28;20045;-72
2023/06/24 10:14:41;;;;;;;8.68;5.43;;;;;;;;;;5054870;28;20110;-71
2023/06/24 10:17:07;;;;;;;10.20;5.93;;;;;;;;;;5057070;28;20101;-71
2023/06/24 10:19:40;;;;;;;16.90;6.07;;;;;;;;;;5056003;28;20105;-72
2023/06/24 10:22:10;;;;;;;10.23;5.05;;;;;;;;;;5055454;28;20409;-72
2023/06/24 10:24:39;;;;;;;10.20;6.32;;;;;;;;;;5055218;28;20128;-71
2023/06/24 10:27:06;;;;;;;6.85;5.18;;;;;;;;;;5057619;28;20067;-72
2023/06/24 10:29:36;;;;;;;11.95;6.15;;;;;;;;;;5056169;28;20560;-71
2023/06/24 10:32:05;;;;;;;9.02;5.22;;;;;;;;;;5055279;28;20056;-72
2023/06/24 10:34:33;;;;;;;8.52;5.20;;;;;;;;;;5057291;28;20040;-72
2023/06/24 10:37:02;;;;;;;8.52;4.45;;;;;;;;;;5058401;28;20706;-72
2023/06/24 10:39:43;;;;;;;8.23;4.63;;;;;;;;;;5062317;28;20052;-72
2023/06/24 10:42:28;;;;;;;6.32;4.43;;;;;;;;;;5061215;28;20055;-73
2023/06/24 10:44:55;;;;;;;8.75;4.25;;;;;;;;;;5060053;28;20131;-72
2023/06/24 10:47:23;;;;;;;5.30;4.32;;;;;;;;;;5060206;28;20127;-72
2023/06/24 10:49:49;;;;;;;7.97;4.10;;;;;;;;;;5059791;28;20041;-72
2023/06/24 10:52:15;;;;;;;6.00;4.25;;;;;;;;;;5061094;28;20392;-71
2023/06/24 10:54:41;;;;;;;8.95;4.90;;;;;;;;;;5057497;28;20397;-72
2023/06/24 10:57:08;;;;;;;9.45;4.85;;;;;;;;;;5060749;28;20059;-72
2023/06/24 10:59:41;;;;;;;8.45;4.80;;;;;;;;;;5059473;28;20150;-72
2023/06/24 11:02:13;;;;;;;10.00;4.85;;;;;;;;;;5056486;28;20037;-72
2023/06/24 11:04:49;;;;;;;5.18;4.13;;;;;;;;;;5059047;28;20419;-72
2023/06/24 11:07:17;;;;;;;9.48;4.22;;;;;;;;;;5060347;28;20415;-72
2023/06/24 11:09:48;;;;;;;14.20;5.07;;;;;;;;;;5059138;28;20044;-72
2023/06/24 11:12:14;;;;;;;7.45;4.32;;;;;;;;;;5059122;28;20040;-72
2023/06/24 11:14:40;;;;;;;4.07;3.70;;;;;;;;;;5058974;28;20054;-72
2023/06/24 11:17:07;;;;;;;6.05;4.35;;;;;;;;;;5058139;28;20435;-72
2023/06/24 11:19:34;;;;;;;5.68;4.10;;;;;;;;;;5057535;28;20507;-73
2023/06/24 11:22:03;;;;;;;6.20;4.13;;;;;;;;;;5059913;28;20048;-73
2023/06/24 11:24:29;;;;;;;5.38;3.90;;;;;;;;;;5059948;28;20123;-72
2023/06/24 11:26:56;;;;;;;7.03;4.32;;;;;;;;;;5059394;28;20729;-73
2023/06/24 11:29:22;;;;;;;6.65;3.88;;;;;;;;;;5056728;28;20040;-72
2023/06/24 11:31:49;;;;;;;5.30;3.50;;;;;;;;;;5059629;28;20080;-72
2023/06/24 11:34:15;;;;;;;6.43;3.65;;;;;;;;;;5058681;28;20449;-72
2023/06/24 11:36:41;;;;;;;6.03;4.20;;;;;;;;;;5059155;28;20075;-73
2023/06/24 11:39:07;;;;;;;7.05;3.83;;;;;;;;;;5056569;28;20037;-72
2023/06/24 11:41:33;;;;;;;4.85;3.92;;;;;;;;;;5059495;28;20159;-71
2023/06/24 11:44:00;;;;;;;6.18;3.85;;;;;;;;;;5058117;28;20055;-72
2023/06/24 11:46:26;;;;;;;6.60;3.40;;;;;;;;;;5059045;28;20124;-71
2023/06/24 11:48:53;;;;;;;7.28;4.18;;;;;;;;;;5058973;28;20040;-73
2023/06/24 11:51:19;;;;;;;9.85;4.32;;;;;;;;;;5056623;28;20045;-72
2023/06/24 11:53:46;;;;;;;10.68;4.68;;;;;;;;;;5058622;28;20060;-71
2023/06/24 11:56:13;;;;;;;7.53;4.50;;;;;;;;;;5058712;28;20068;-71
2023/06/24 11:58:39;;;;;;;15.60;4.38;;;;;;;;;;5059325;28;20129;-71
2023/06/24 12:01:08;;;;;;;11.07;4.85;;;;;;;;;;5058566;28;20043;-71
2023/06/24 12:03:34;;;;;;;8.88;4.75;;;;;;;;;;5058107;28;20055;-72
2023/06/24 12:06:01;;;;;;;6.07;4.28;;;;;;;;;;5058119;28;20064;-71
2023/06/24 12:08:27;;;;;;;7.38;4.18;;;;;;;;;;5061056;28;20043;-71
2023/06/24 12:10:53;;;;;;;7.97;4.55;;;;;;;;;;5057901;28;20109;-70
2023/06/24 12:13:19;;;;;;;7.22;4.40;;;;;;;;;;5062981;28;20033;-71
2023/06/24 12:15:45;;;;;;;6.45;3.53;;;;;;;;;;5066216;28;20650;-70
2023/06/24 12:18:13;;;;;;;12.57;10.57;;;;;;;;;;5065013;28;20134;-71
2023/06/24 12:20:39;;;;;;;12.85;9.77;;;;;;;;;;5063571;28;20064;-70
2023/06/24 12:23:06;;;;;;;11.90;7.95;;;;;;;;;;5064489;28;20060;-71
2023/06/24 12:25:32;;;;;;;7.70;6.35;;;;;;;;;;5065510;28;20041;-70
2023/06/24 12:27:59;;;;;;;10.23;6.93;;;;;;;;;;5061328;28;20075;-71
2023/06/24 12:30:25;;;;;;;10.02;8.38;;;;;;;;;;5061476;28;20397;-70
2023/06/24 12:32:51;;;;;;;11.93;8.68;;;;;;;;;;5059012;28;20052;-71
2023/06/24 12:35:17;;;;;;;11.15;8.52;;;;;;;;;;5060182;28;20040;-71
2023/06/24 12:37:45;;;;;;;10.95;8.75;;;;;;;;;;5058272;28;20040;-71
2023/06/24 12:40:11;;;;;;;11.82;9.15;;;;;;;;;;5059839;28;20142;-71
2023/06/24 12:42:37;;;;;;;12.52;9.35;;;;;;;;;;5058269;28;20036;-71
2023/06/24 12:45:04;;;;;;;12.82;9.27;;;;;;;;;;5058994;28;20739;-71
2023/06/24 12:47:30;;;;;;;13.65;9.38;;;;;;;;;;5058430;28;20370;-71
2023/06/24 12:49:56;;;;;;;11.10;8.73;;;;;;;;;;5058388;28;20125;-71
2023/06/24 12:52:22;;;;;;;14.40;9.27;;;;;;;;;;5055513;28;20496;-71
2023/06/24 12:54:48;;;;;;;16.90;10.10;;;;;;;;;;5057306;28;20052;-71
2023/06/24 12:57:15;;;;;;;18.05;10.30;;;;;;;;;;5058398;28;20160;-71
2023/06/24 12:59:42;;;;;;;12.80;9.18;;;;;;;;;;5056614;28;21597;-71
2023/06/24 13:02:08;;;;;;;10.75;8.68;;;;;;;;;;5058306;28;20055;-72
2023/06/24 13:04:34;;;;;;;10.65;6.90;;;;;;;;;;5058785;28;20083;-71
2023/06/24 13:07:00;;;;;;;13.63;8.57;;;;;;;;;;5057604;28;20040;-71
2023/06/24 13:09:26;;;;;;;9.13;7.43;;;;;;;;;;5058826;28;20045;-71
2023/06/24 13:11:52;;;;;;;13.02;7.70;;;;;;;;;;5055287;28;20055;-71
2023/06/24 13:14:19;;;;;;;9.23;6.95;;;;;;;;;;5058682;28;20083;-71
2023/06/24 13:16:45;;;;;;;9.15;7.60;;;;;;;;;;5039560;28;20041;-70
2023/06/24 13:19:11;;;;;;;11.23;7.57;;;;;;;;;;5059117;28;20193;-70
2023/06/24 13:21:37;;;;;;;14.05;7.25;;;;;;;;;;5058762;28;20135;-71
2023/06/24 13:24:03;;;;;;;13.60;7.15;;;;;;;;;;5059874;28;20090;-72
2023/06/24 13:26:29;;;;;;;10.95;7.57;;;;;;;;;;5059010;28;20111;-70
2023/06/24 13:28:55;;;;;;;18.38;8.50;;;;;;;;;;5058455;28;20047;-72
2023/06/24 13:31:21;;;;;;;10.18;7.15;;;;;;;;;;5058260;28;22343;-71
2023/06/24 13:33:47;;;;;;;13.18;7.13;;;;;;;;;;5057112;28;20067;-71
2023/06/24 13:36:29;;;;;;;15.95;6.15;;;;;;;;;;5055554;28;20447;-70
2023/06/24 13:38:55;;;;;;;9.25;6.00;;;;;;;;;;5055774;28;20445;-71
2023/06/24 13:41:21;;;;;;;12.18;6.22;;;;;;;;;;5057001;28;20663;-71
2023/06/24 13:43:47;;;;;;;9.40;5.80;;;;;;;;;;5055490;28;20052;-71
2023/06/24 13:46:13;;;;;;;7.57;5.75;;;;;;;;;;5056813;28;20059;-72
2023/06/24 13:48:39;;;;;;;9.10;5.95;;;;;;;;;;5057372;28;20036;-72
2023/06/24 13:51:06;;;;;;;8.10;5.75;;;;;;;;;;5056727;28;20040;-71
2023/06/24 13:53:32;;;;;;;10.93;5.10;;;;;;;;;;5057677;28;20060;-71
2023/06/24 13:55:58;;;;;;;7.60;5.55;;;;;;;;;;5057827;28;20040;-72
2023/06/24 13:58:25;;;;;;;6.93;5.05;;;;;;;;;;5054849;28;20135;-72
2023/06/24 14:00:51;;;;;;;7.93;5.28;;;;;;;;;;5052041;28;20626;-71
2023/06/24 14:03:17;;;;;;;7.32;4.60;;;;;;;;;;5055118;28;20040;-71
2023/06/24 14:05:43;;;;;;;9.07;5.05;;;;;;;;;;5056233;28;20125;-71
2023/06/24 14:08:09;;;;;;;10.60;4.35;;;;;;;;;;5054627;28;20040;-71
2023/06/24 14:10:35;;;;;;;7.53;4.28;;;;;;;;;;5055827;28;20498;-71
2023/06/24 14:13:01;;;;;;;7.22;4.38;;;;;;;;;;5056581;28;20131;-71
2023/06/24 14:15:27;;;;;;;9.52;4.28;;;;;;;;;;5050842;28;20171;-72
2023/06/24 14:17:53;;;;;;;8.52;3.75;;;;;;;;;;5056703;28;20470;-71
2023/06/24 14:20:19;;;;;;;6.25;4.40;;;;;;;;;;5056692;28;20102;-72
2023/06/24 14:22:45;;;;;;;9.75;4.38;;;;;;;;;;5055828;28;20047;-71
2023/06/24 14:25:11;;;;;;;4.32;3.70;;;;;;;;;;5056433;28;20044;-71
2023/06/24 14:27:37;;;;;;;5.35;3.78;;;;;;;;;;5054770;28;20176;-71